Venice Marco Polo Airport

LIPZ · 威尼托, 意大利

罗盘
风向 的 风向 080° Venice Marco Polo Airport 4R/22L
风: 5 kt, 2 beaufort

4 kt

3 kt
改变
0 1.000 2.000 3.000 4.000 5.000
BKN 3.000 ft
METAR LIPZ 041050Z 08005KT 9999 BKN030 20/14 Q1022 NOSIG

METAR Venice Marco Polo Airport - LIPZ/VCE

Venice Marco Polo Airport是Venice,意大利中的大型机场。 该机场有2条跑道: 4R/22L 和 4L/22R. 该领域的国际民航组织标志是LIPZ 它的国际航空运输协会代码是VCE.

这份报告是针对2022年10月4日 12:50, 当地时间在Venice Marco Polo Airport进行的。

机场观察

风向为080°,速度为5 kt。

可见度为10 km 或者更多。

有碎云在3.000 ft的高度。 破损或更高的上限为3.000 ft。

温度和风寒是20 °C。 露点为14 °C,相对湿度为69%。 海平面上的气压为1022 hPa (QNH)。

白天

今天,太阳从07:12升起,在18:46降落。 这适用于Venice Marco Polo Airport,世界夏令时可能有所不同。 当地时间与世界标准时间之间的时差为+2 小时。 夏令时目前正在进行中。

公司介绍

我们没有关于这个机场的公司信息。

体会

到Vliegles.nl去找飞行课程,跳伞和其他飞行体验。 浏览页面,了解Venice Marco Polo Airport附近所有可用的活动。 你也可以使用搜索功能来寻找你所在地附近的特定飞行课程、跳伞或其他飞行体验。

跑道

Id 标题 侧风 逆风 侧风 %
4R/22L 040°-220° 3 kt 4 kt 64 %
4L/22R 040°-220° 3 kt 4 kt 64 %

逆风成分最大的方向会被突出显示,并用于横风计算。 这并不一定意味着这个方向在使用。

乌云

3.000 ft BKN 碎云

温度 & 天气

温度 20 °C
露点 14 °C
相对湿度 69%
Kp-index 2 (0-9)

白天

日出
07:12
中午
12:59
日落
18:46 (5h 41m)

小工具

你想在你的网站上有一个关于Venice Marco Polo Airport的当前航空天气(METAR)的小部件吗?

</> 显示HTML代码

我们和第三方通过cookies跟踪您在我们网站上的上网行为。如果您继续,我们认为您同意我们的cookie政策。 了解更多